Google Maps JavaScript API Example
Pilot Flight Report # 92102 Submitted by : AST204 on 2018-10-02
Date: 2018-10-02Aircraft: Boeing 767-300
Flight No.: AST0553Distance (Nm): 358.99
Departure: KLAS - McCarran InternationalDestination: KSFO - San Francisco Intl
 TimeFuelWeightSpeeds  
Out (Taxi)1342Z118502 lbs372442 lbs Flight RulesIFR
Off (Takeoff)1356Z 370008 lbs169 ktsFlight LevelFL350
On (Landing)1456Z 358113 lbs160 ktsVSTD-1,196 ft/min
In (Ramp)1500Z103429 lbs357369 lbs ZFW253943 lbs
Flight1.00  -  1:0011898 lbs  Pax0
Block1.30  -  1:1815073 lbs  Cargo0
Departure WeatherKLAS 261338Z 26005KT 50SM SKC 22/-1 A2999
Destination WeatherKSFO 261500Z 29305KT 50SM FEW049 21/10 A2991
Flight Comments